Time;durP1;ratioP1;P1;durP2;ratioP2;P2;SDS_P1;SDS_P2;PMS_P1;PMS_P2;Temp;Humidity;BMP_temperature;BMP_pressure;BME280_temperature;BME280_humidity;BME280_pressure;Samples;Min_cycle;Max_cycle;Signal;HPM_P1;HPM_P2
2023/06/16 00:02:25;;;;;;;3.30;1.80;;;;;;;;;;5551185;28;10000869;-66
2023/06/16 00:05:27;;;;;;;2.20;2.00;;;;;;;;;;6254129;28;20048;-68
2023/06/16 00:08:30;;;;;;;2.15;1.95;;;;;;;;;;6248780;28;20025;-67
2023/06/16 00:11:33;;;;;;;2.47;1.92;;;;;;;;;;6248722;28;20048;-67
2023/06/16 00:14:33;;;;;;;1.88;1.70;;;;;;;;;;6248729;28;20104;-70
2023/06/16 00:17:36;;;;;;;1.90;1.70;;;;;;;;;;6252128;28;20373;-67
2023/06/16 00:20:37;;;;;;;2.35;2.00;;;;;;;;;;6251261;28;20013;-67
2023/06/16 00:23:37;;;;;;;2.00;1.57;;;;;;;;;;6251343;28;20104;-67
2023/06/16 00:26:37;;;;;;;2.73;1.80;;;;;;;;;;6252042;28;20044;-67
2023/06/16 00:29:38;;;;;;;3.00;1.50;;;;;;;;;;6252324;28;20167;-66
2023/06/16 00:32:38;;;;;;;4.57;1.85;;;;;;;;;;6249941;28;20033;-67
2023/06/16 00:35:39;;;;;;;2.00;1.73;;;;;;;;;;6249131;28;20036;-66
2023/06/16 00:38:40;;;;;;;;;;;;;;;;;;6263564;28;20022;-67
2023/06/16 00:41:40;;;;;;;2.03;1.47;;;;;;;;;;6252189;28;20068;-68
2023/06/16 00:44:40;;;;;;;1.77;1.53;;;;;;;;;;6253249;28;20121;-66
2023/06/16 00:47:41;;;;;;;3.10;1.87;;;;;;;;;;6252914;28;20036;-69
2023/06/16 00:50:41;;;;;;;2.35;1.58;;;;;;;;;;6249597;28;20064;-66
2023/06/16 00:53:41;;;;;;;1.60;1.50;;;;;;;;;;6242207;28;20607;-67
2023/06/16 00:56:43;;;;;;;2.07;1.73;;;;;;;;;;6248458;28;20029;-67
2023/06/16 00:59:43;;;;;;;;;;;;;;;;;;6242086;28;20025;-66
2023/06/16 01:02:46;;;;;;;1.77;1.48;;;;;;;;;;6250459;28;20008;-68
2023/06/16 01:05:46;;;;;;;2.65;1.60;;;;;;;;;;6244510;28;20105;-67
2023/06/16 01:08:50;;;;;;;3.00;1.90;;;;;;;;;;6246737;28;20079;-66
2023/06/16 01:12:00;;;;;;;2.22;2.03;;;;;;;;;;6239384;28;20021;-66
2023/06/16 01:15:04;;;;;;;2.35;1.60;;;;;;;;;;6252149;28;20131;-67
2023/06/16 01:18:05;;;;;;;2.00;1.83;;;;;;;;;;6254779;28;20029;-67
2023/06/16 01:21:05;;;;;;;;;;;;;;;;;;6247503;28;20084;-68
2023/06/16 01:24:08;;;;;;;1.58;1.48;;;;;;;;;;6257029;28;19912;-67
2023/06/16 01:27:10;;;;;;;2.10;1.90;;;;;;;;;;6252066;28;20486;-67
2023/06/16 01:30:12;;;;;;;2.72;1.70;;;;;;;;;;6249883;28;20082;-69
2023/06/16 01:33:13;;;;;;;4.20;1.92;;;;;;;;;;6253784;28;20020;-67
2023/06/16 01:36:14;;;;;;;2.33;1.77;;;;;;;;;;6250557;28;20112;-67
2023/06/16 01:39:16;;;;;;;2.85;1.80;;;;;;;;;;6252887;28;20033;-68
2023/06/16 01:42:16;;;;;;;2.13;1.90;;;;;;;;;;6253335;28;20025;-68
2023/06/16 01:45:17;;;;;;;2.35;1.80;;;;;;;;;;6251697;28;20025;-67
2023/06/16 01:48:20;;;;;;;2.08;1.85;;;;;;;;;;6254579;28;20028;-68
2023/06/16 01:51:21;;;;;;;2.30;1.92;;;;;;;;;;6251848;28;20517;-68
2023/06/16 01:54:21;;;;;;;2.30;2.05;;;;;;;;;;6252343;28;20086;-67
2023/06/16 01:57:22;;;;;;;1.97;1.73;;;;;;;;;;6252778;28;20063;-67
2023/06/16 02:00:25;;;;;;;1.95;1.75;;;;;;;;;;6249130;28;20103;-67
2023/06/16 02:03:35;;;;;;;2.70;1.90;;;;;;;;;;5905926;28;10000535;-69
2023/06/16 02:06:41;;;;;;;2.53;1.75;;;;;;;;;;6248005;28;20056;-67
2023/06/16 02:09:42;;;;;;;1.98;1.77;;;;;;;;;;6249414;28;20158;-68
2023/06/16 02:12:42;;;;;;;3.75;1.90;;;;;;;;;;6253172;28;20029;-68
2023/06/16 02:15:43;;;;;;;3.17;2.33;;;;;;;;;;6253753;28;20103;-67
2023/06/16 02:18:43;;;;;;;2.10;1.90;;;;;;;;;;6251820;28;20283;-67
2023/06/16 02:21:44;;;;;;;2.10;1.90;;;;;;;;;;6260339;28;20027;-67
2023/06/16 02:24:44;;;;;;;1.93;1.70;;;;;;;;;;6252032;28;20072;-67
2023/06/16 02:27:45;;;;;;;2.17;1.80;;;;;;;;;;6252892;28;20021;-67
2023/06/16 02:30:45;;;;;;;3.13;2.17;;;;;;;;;;6246944;28;20017;-67
2023/06/16 02:33:48;;;;;;;2.20;1.60;;;;;;;;;;6250924;28;20370;-67
2023/06/16 02:36:50;;;;;;;2.50;1.63;;;;;;;;;;6248188;28;20488;-67
2023/06/16 02:39:50;;;;;;;2.63;1.95;;;;;;;;;;6252808;28;20021;-67
2023/06/16 02:42:50;;;;;;;3.17;1.83;;;;;;;;;;6255414;28;20440;-68
2023/06/16 02:45:50;;;;;;;2.50;1.57;;;;;;;;;;6262723;28;20408;-69
2023/06/16 02:48:51;;;;;;;2.30;2.10;;;;;;;;;;6248690;28;20474;-70
2023/06/16 02:51:51;;;;;;;3.17;2.17;;;;;;;;;;6254543;28;20507;-69
2023/06/16 02:54:51;;;;;;;2.10;1.90;;;;;;;;;;6255075;28;20016;-69
2023/06/16 02:57:52;;;;;;;2.07;1.80;;;;;;;;;;6254082;28;20025;-69
2023/06/16 03:00:52;;;;;;;2.00;1.80;;;;;;;;;;6248822;28;20113;-68
2023/06/16 03:03:53;;;;;;;2.30;1.87;;;;;;;;;;6255689;28;20041;-68
2023/06/16 03:06:57;;;;;;;2.10;1.88;;;;;;;;;;6255834;28;20067;-69
2023/06/16 03:09:59;;;;;;;2.80;2.15;;;;;;;;;;6246717;28;20033;-69
2023/06/16 03:12:59;;;;;;;2.45;2.20;;;;;;;;;;6254125;28;20089;-67
2023/06/16 03:16:00;;;;;;;2.37;2.03;;;;;;;;;;6244578;28;20150;-68
2023/06/16 03:19:00;;;;;;;2.22;1.95;;;;;;;;;;6256759;28;20109;-71
2023/06/16 03:22:01;;;;;;;3.27;2.00;;;;;;;;;;6247665;28;20393;-68
2023/06/16 03:25:04;;;;;;;2.43;2.00;;;;;;;;;;6253208;28;20483;-68
2023/06/16 03:28:06;;;;;;;2.30;2.10;;;;;;;;;;6244974;28;20386;-69
2023/06/16 03:31:08;;;;;;;3.05;2.00;;;;;;;;;;6256569;28;20541;-68
2023/06/16 03:34:08;;;;;;;;;;;;;;;;;;6252585;28;20018;-68
2023/06/16 03:37:08;;;;;;;2.22;1.67;;;;;;;;;;6254351;28;20282;-69
2023/06/16 03:40:09;;;;;;;1.73;1.63;;;;;;;;;;6254593;28;20481;-68
2023/06/16 03:43:09;;;;;;;2.00;1.60;;;;;;;;;;6249457;28;20275;-67
2023/06/16 03:46:09;;;;;;;2.83;2.00;;;;;;;;;;6251964;28;20017;-70
2023/06/16 03:49:10;;;;;;;3.07;1.80;;;;;;;;;;6256538;28;20021;-70
2023/06/16 03:52:10;;;;;;;2.17;1.98;;;;;;;;;;6258976;28;20017;-69
2023/06/16 03:55:11;;;;;;;3.43;3.03;;;;;;;;;;6260838;28;20029;-68
2023/06/16 03:58:13;;;;;;;4.43;3.03;;;;;;;;;;6253449;28;20025;-68
2023/06/16 04:01:14;;;;;;;4.20;2.50;;;;;;;;;;6258111;28;20028;-68
2023/06/16 04:04:14;;;;;;;4.20;2.80;;;;;;;;;;6251468;28;20032;-68
2023/06/16 04:07:14;;;;;;;3.00;2.63;;;;;;;;;;6253779;28;20460;-68
2023/06/16 04:10:15;;;;;;;4.13;2.77;;;;;;;;;;6256011;28;20637;-68
2023/06/16 04:13:15;;;;;;;2.23;2.03;;;;;;;;;;6252151;28;20096;-68
2023/06/16 04:16:15;;;;;;;2.17;1.97;;;;;;;;;;6261962;28;20100;-67
2023/06/16 04:19:17;;;;;;;2.40;2.10;;;;;;;;;;6248551;28;20025;-67
2023/06/16 04:22:17;;;;;;;2.50;1.90;;;;;;;;;;6255143;28;20029;-69
2023/06/16 04:25:18;;;;;;;2.80;1.93;;;;;;;;;;6257478;28;20027;-67
2023/06/16 04:28:21;;;;;;;2.17;1.80;;;;;;;;;;6257644;28;20033;-68
2023/06/16 04:31:22;;;;;;;2.85;2.10;;;;;;;;;;6257762;28;20059;-71
2023/06/16 04:34:22;;;;;;;3.10;2.20;;;;;;;;;;6262428;28;20013;-66
2023/06/16 04:37:22;;;;;;;2.45;2.20;;;;;;;;;;6254101;28;20416;-68
2023/06/16 04:40:23;;;;;;;3.53;2.27;;;;;;;;;;6254279;28;20043;-69
2023/06/16 04:43:23;;;;;;;4.30;2.75;;;;;;;;;;6255457;28;20040;-70
2023/06/16 04:46:24;;;;;;;3.27;2.40;;;;;;;;;;6251917;28;20040;-69
2023/06/16 04:49:24;;;;;;;3.80;2.20;;;;;;;;;;6255380;28;20025;-68
2023/06/16 04:52:24;;;;;;;4.73;2.43;;;;;;;;;;6247432;28;20025;-69
2023/06/16 04:55:26;;;;;;;3.22;2.30;;;;;;;;;;6253705;28;20022;-69
2023/06/16 04:58:26;;;;;;;2.30;2.10;;;;;;;;;;6252496;28;20052;-71
2023/06/16 05:01:26;;;;;;;3.13;2.47;;;;;;;;;;6249690;28;20067;-70
2023/06/16 05:04:26;;;;;;;3.70;2.50;;;;;;;;;;6253877;28;20021;-70
2023/06/16 05:07:27;;;;;;;3.77;2.10;;;;;;;;;;6251232;28;20108;-72
2023/06/16 05:10:27;;;;;;;4.40;2.10;;;;;;;;;;6249106;28;20044;-70
2023/06/16 05:13:27;;;;;;;2.33;1.80;;;;;;;;;;6254876;28;20091;-70
2023/06/16 05:16:27;;;;;;;3.27;1.97;;;;;;;;;;6249683;28;20020;-72
2023/06/16 05:19:29;;;;;;;4.50;2.00;;;;;;;;;;6252438;28;20435;-69
2023/06/16 05:22:30;;;;;;;3.10;2.10;;;;;;;;;;6253365;28;20207;-69
2023/06/16 05:25:30;;;;;;;3.40;2.53;;;;;;;;;;5905525;28;10000103;-70
2023/06/16 05:28:30;;;;;;;2.35;2.15;;;;;;;;;;6250481;28;20063;-69
2023/06/16 05:31:30;;;;;;;2.43;1.90;;;;;;;;;;6248137;28;20085;-70
2023/06/16 05:34:31;;;;;;;2.60;2.40;;;;;;;;;;6248821;28;20025;-70
2023/06/16 05:37:31;;;;;;;2.40;2.20;;;;;;;;;;6243406;28;20745;-68
2023/06/16 05:40:31;;;;;;;2.40;1.90;;;;;;;;;;6245427;28;21722;-69
2023/06/16 05:43:31;;;;;;;2.30;2.10;;;;;;;;;;6246395;28;20455;-69
2023/06/16 05:46:32;;;;;;;2.87;2.17;;;;;;;;;;6243204;28;20041;-69
2023/06/16 05:49:32;;;;;;;2.03;1.83;;;;;;;;;;6249564;28;20032;-70
2023/06/16 05:52:32;;;;;;;2.30;2.10;;;;;;;;;;6253801;28;20076;-69
2023/06/16 05:55:34;;;;;;;2.58;2.25;;;;;;;;;;6247859;28;20021;-71
2023/06/16 05:58:36;;;;;;;2.55;2.35;;;;;;;;;;6242390;28;20032;-71
2023/06/16 06:01:36;;;;;;;2.38;2.17;;;;;;;;;;6252281;28;20025;-68
2023/06/16 06:04:36;;;;;;;2.83;2.27;;;;;;;;;;6251911;28;20052;-68
2023/06/16 06:07:36;;;;;;;2.77;2.07;;;;;;;;;;6247639;28;20588;-68
2023/06/16 06:10:36;;;;;;;;;;;;;;;;;;6247611;28;20477;-70
2023/06/16 06:13:37;;;;;;;3.58;1.85;;;;;;;;;;6245483;28;19912;-72
2023/06/16 06:16:40;;;;;;;1.97;1.87;;;;;;;;;;6247787;28;20048;-69
2023/06/16 06:19:40;;;;;;;3.83;2.03;;;;;;;;;;6249942;28;20024;-69
2023/06/16 06:22:41;;;;;;;2.30;2.10;;;;;;;;;;6247708;28;20577;-70
2023/06/16 06:25:42;;;;;;;2.20;1.95;;;;;;;;;;6254190;28;20290;-71
2023/06/16 06:28:42;;;;;;;;;;;;;;;;;;6245039;28;20025;-69
2023/06/16 06:31:42;;;;;;;2.38;1.88;;;;;;;;;;6247875;28;19913;-68
2023/06/16 06:34:42;;;;;;;;;;;;;;;;;;6257694;28;20025;-68
2023/06/16 06:37:43;;;;;;;1.35;1.25;;;;;;;;;;6254058;28;20354;-69
2023/06/16 06:40:43;;;;;;;;;;;;;;;;;;6248457;28;20077;-70
2023/06/16 06:43:43;;;;;;;1.65;1.50;;;;;;;;;;6245883;28;19935;-70
2023/06/16 06:46:43;;;;;;;;;;;;;;;;;;6252643;28;20025;-70
2023/06/16 06:49:43;;;;;;;4.65;1.77;;;;;;;;;;6248484;28;19951;-71
2023/06/16 06:52:43;;;;;;;;;;;;;;;;;;6250943;28;20025;-71
2023/06/16 06:55:44;;;;;;;2.10;1.90;;;;;;;;;;6253134;28;19909;-70
2023/06/16 06:58:44;;;;;;;;;;;;;;;;;;6251133;28;20410;-70
2023/06/16 07:01:45;;;;;;;2.30;1.80;;;;;;;;;;6250679;28;19974;-70
2023/06/16 07:04:45;;;;;;;2.03;1.83;;;;;;;;;;6247489;28;20569;-72
2023/06/16 07:07:46;;;;;;;;;;;;;;;;;;6250270;28;20462;-70
2023/06/16 07:10:46;;;;;;;2.03;1.83;;;;;;;;;;6247400;28;19920;-72
2023/06/16 07:13:46;;;;;;;;;;;;;;;;;;6253424;28;20033;-72
2023/06/16 07:16:46;;;;;;;2.28;2.08;;;;;;;;;;6250250;28;19913;-72
2023/06/16 07:19:46;;;;;;;;;;;;;;;;;;6249885;28;20037;-71
2023/06/16 07:22:47;;;;;;;2.10;1.90;;;;;;;;;;6251072;28;19908;-69
2023/06/16 07:25:47;;;;;;;3.47;2.05;;;;;;;;;;6246788;28;20470;-71
2023/06/16 07:28:48;;;;;;;2.30;1.98;;;;;;;;;;6245701;28;20124;-71
2023/06/16 07:31:48;;;;;;;2.67;1.98;;;;;;;;;;6247900;28;20033;-72
2023/06/16 07:34:48;;;;;;;2.20;2.00;;;;;;;;;;6252083;28;20106;-71
2023/06/16 07:37:48;;;;;;;2.87;2.00;;;;;;;;;;6247820;28;20017;-71
2023/06/16 07:40:49;;;;;;;2.22;2.03;;;;;;;;;;6250842;28;20682;-74
2023/06/16 07:43:49;;;;;;;2.88;2.30;;;;;;;;;;6251163;28;20021;-70
2023/06/16 07:46:49;;;;;;;2.38;2.08;;;;;;;;;;6252116;28;20096;-71
2023/06/16 07:49:50;;;;;;;2.65;2.42;;;;;;;;;;6249616;28;20090;-72
2023/06/16 07:52:51;;;;;;;2.35;1.95;;;;;;;;;;6251199;28;20496;-71
2023/06/16 07:55:51;;;;;;;2.25;2.05;;;;;;;;;;6249277;28;20204;-72
2023/06/16 07:58:51;;;;;;;2.80;2.17;;;;;;;;;;6240136;28;20044;-70
2023/06/16 08:01:51;;;;;;;2.37;2.17;;;;;;;;;;6246456;28;20098;-71
2023/06/16 08:04:52;;;;;;;1.97;1.77;;;;;;;;;;6249447;28;20271;-71
2023/06/16 08:07:52;;;;;;;2.80;1.85;;;;;;;;;;6254792;28;20482;-73
2023/06/16 08:10:54;;;;;;;2.65;2.00;;;;;;;;;;6242870;28;20025;-71
2023/06/16 08:13:54;;;;;;;2.38;2.17;;;;;;;;;;6246309;28;20114;-72
2023/06/16 08:16:54;;;;;;;2.95;2.10;;;;;;;;;;6245227;28;20359;-70
2023/06/16 08:19:54;;;;;;;2.30;2.10;;;;;;;;;;6249062;28;20021;-71
2023/06/16 08:22:55;;;;;;;5.47;1.83;;;;;;;;;;6249402;28;20071;-71
2023/06/16 08:25:55;;;;;;;2.90;2.38;;;;;;;;;;6248567;28;20429;-71
2023/06/16 08:28:55;;;;;;;3.20;2.10;;;;;;;;;;6253890;28;20315;-71
2023/06/16 08:31:56;;;;;;;3.03;2.37;;;;;;;;;;6252728;28;20275;-71
2023/06/16 08:34:56;;;;;;;2.28;2.08;;;;;;;;;;6256520;28;20267;-71
2023/06/16 08:37:56;;;;;;;3.53;2.40;;;;;;;;;;6251386;28;20022;-72
2023/06/16 08:40:57;;;;;;;2.80;2.60;;;;;;;;;;6252729;28;20313;-73
2023/06/16 08:43:58;;;;;;;3.05;2.20;;;;;;;;;;6246214;28;20033;-71
2023/06/16 08:46:59;;;;;;;2.30;2.10;;;;;;;;;;6249427;28;20546;-71
2023/06/16 08:49:59;;;;;;;3.70;2.30;;;;;;;;;;6245124;28;20024;-69
2023/06/16 08:53:01;;;;;;;2.70;2.05;;;;;;;;;;6255157;28;20033;-70
2023/06/16 08:56:02;;;;;;;2.42;2.22;;;;;;;;;;6254641;28;20486;-68
2023/06/16 08:59:04;;;;;;;3.72;2.53;;;;;;;;;;6247960;28;20111;-70
2023/06/16 09:02:05;;;;;;;2.95;2.35;;;;;;;;;;6243074;28;21082;-70
2023/06/16 09:05:06;;;;;;;3.28;2.38;;;;;;;;;;6257015;28;20052;-70
2023/06/16 09:08:08;;;;;;;2.40;2.20;;;;;;;;;;6257096;28;20025;-70
2023/06/16 09:11:08;;;;;;;2.13;1.77;;;;;;;;;;6247313;28;20032;-72
2023/06/16 09:14:13;;;;;;;2.50;2.05;;;;;;;;;;6248523;28;20017;-73
2023/06/16 09:17:14;;;;;;;4.50;2.45;;;;;;;;;;6248790;28;20025;-71
2023/06/16 09:20:15;;;;;;;2.50;2.30;;;;;;;;;;6249273;28;20502;-69
2023/06/16 09:23:16;;;;;;;2.50;2.30;;;;;;;;;;6245554;28;20074;-70
2023/06/16 09:26:16;;;;;;;4.18;2.05;;;;;;;;;;6251741;28;20021;-71
2023/06/16 09:29:21;;;;;;;3.15;2.00;;;;;;;;;;6249129;28;20465;-70
2023/06/16 09:32:22;;;;;;;1.85;1.75;;;;;;;;;;6248707;28;20144;-69
2023/06/16 09:35:23;;;;;;;2.23;1.90;;;;;;;;;;6252617;28;20021;-70
2023/06/16 09:38:23;;;;;;;2.25;2.05;;;;;;;;;;6248472;28;20294;-68
2023/06/16 09:41:24;;;;;;;2.67;2.38;;;;;;;;;;6249994;28;20200;-70
2023/06/16 09:44:25;;;;;;;2.72;2.35;;;;;;;;;;6252369;28;20032;-72
2023/06/16 09:47:25;;;;;;;2.50;2.30;;;;;;;;;;6249424;28;20037;-71
2023/06/16 09:50:26;;;;;;;2.63;2.37;;;;;;;;;;6252785;28;20490;-71
2023/06/16 09:53:27;;;;;;;2.72;2.33;;;;;;;;;;6251147;28;20478;-72
2023/06/16 09:56:28;;;;;;;3.42;2.92;;;;;;;;;;6249668;28;20110;-69
2023/06/16 09:59:28;;;;;;;2.97;2.30;;;;;;;;;;6259642;28;20021;-71
2023/06/16 10:02:29;;;;;;;4.15;2.30;;;;;;;;;;6262902;28;20028;-71
2023/06/16 10:05:34;;;;;;;1.88;1.77;;;;;;;;;;6258915;28;20032;-70
2023/06/16 10:08:34;;;;;;;2.70;2.30;;;;;;;;;;6245987;28;20029;-72
2023/06/16 10:11:35;;;;;;;3.55;2.30;;;;;;;;;;6246915;28;20025;-71
2023/06/16 10:14:35;;;;;;;1.77;1.60;;;;;;;;;;6250074;28;20600;-72
2023/06/16 10:17:37;;;;;;;2.78;2.17;;;;;;;;;;6246898;28;20599;-71
2023/06/16 10:20:38;;;;;;;2.72;2.38;;;;;;;;;;6252581;28;20454;-71
2023/06/16 10:23:39;;;;;;;2.88;2.10;;;;;;;;;;6251174;28;20362;-72
2023/06/16 10:26:39;;;;;;;3.58;2.30;;;;;;;;;;6249887;28;20017;-73
2023/06/16 10:29:40;;;;;;;4.32;2.13;;;;;;;;;;6258199;28;20108;-70
2023/06/16 10:32:40;;;;;;;4.15;1.83;;;;;;;;;;6256615;28;20064;-72
2023/06/16 10:35:48;;;;;;;2.67;1.93;;;;;;;;;;6251052;28;20036;-72
2023/06/16 10:38:59;;;;;;;3.10;2.30;;;;;;;;;;6251801;28;20936;-71
2023/06/16 10:42:00;;;;;;;2.38;2.05;;;;;;;;;;6249957;28;20032;-73
2023/06/16 10:45:19;;;;;;;1.77;1.67;;;;;;;;;;6254249;28;20347;-70
2023/06/16 10:48:19;;;;;;;3.35;2.33;;;;;;;;;;6247910;28;20454;-71
2023/06/16 10:51:38;;;;;;;5.88;1.95;;;;;;;;;;6245833;28;20596;-71
2023/06/16 10:54:45;;;;;;;2.33;1.98;;;;;;;;;;6245543;28;20182;-70
2023/06/16 10:57:56;;;;;;;2.08;1.92;;;;;;;;;;6239887;28;20021;-73
2023/06/16 11:01:02;;;;;;;3.72;2.20;;;;;;;;;;6253329;28;20017;-73
2023/06/16 11:04:03;;;;;;;2.35;2.20;;;;;;;;;;6252940;28;20462;-72
2023/06/16 11:07:03;;;;;;;3.08;2.17;;;;;;;;;;6249160;28;20631;-71
2023/06/16 11:10:05;;;;;;;2.53;2.33;;;;;;;;;;6249051;28;20021;-72
2023/06/16 11:13:06;;;;;;;3.92;2.55;;;;;;;;;;6241919;28;20021;-69
2023/06/16 11:16:06;;;;;;;2.80;2.60;;;;;;;;;;6251702;28;20025;-71
2023/06/16 11:19:07;;;;;;;2.75;2.33;;;;;;;;;;6251743;28;20031;-71
2023/06/16 11:22:07;;;;;;;2.03;1.93;;;;;;;;;;6250398;28;20037;-72
2023/06/16 11:25:07;;;;;;;4.60;2.10;;;;;;;;;;6245599;28;20071;-71
2023/06/16 11:28:09;;;;;;;2.70;2.40;;;;;;;;;;6251269;28;20311;-73
2023/06/16 11:31:11;;;;;;;3.58;2.42;;;;;;;;;;6256608;28;21673;-73
2023/06/16 11:34:11;;;;;;;2.55;2.35;;;;;;;;;;6256415;28;20013;-72
2023/06/16 11:37:11;;;;;;;2.63;2.10;;;;;;;;;;6246163;28;20024;-72
2023/06/16 11:40:11;;;;;;;2.80;2.50;;;;;;;;;;6251031;28;20086;-71
2023/06/16 11:43:12;;;;;;;2.57;2.37;;;;;;;;;;6244113;28;20074;-72
2023/06/16 11:46:12;;;;;;;2.47;2.27;;;;;;;;;;6246866;28;20267;-69
2023/06/16 11:49:12;;;;;;;2.90;2.42;;;;;;;;;;6245372;28;20029;-71
2023/06/16 11:52:13;;;;;;;2.83;2.43;;;;;;;;;;6246504;28;20028;-70
2023/06/16 11:55:13;;;;;;;3.73;2.50;;;;;;;;;;6248371;28;20275;-69
2023/06/16 11:58:13;;;;;;;3.23;2.47;;;;;;;;;;6251050;28;20304;-72
2023/06/16 12:01:17;;;;;;;3.88;2.60;;;;;;;;;;6248979;28;20272;-71
2023/06/16 12:04:18;;;;;;;3.15;2.85;;;;;;;;;;6250626;28;20103;-72
2023/06/16 12:07:18;;;;;;;2.95;2.75;;;;;;;;;;6252047;28;20048;-70
2023/06/16 12:10:19;;;;;;;2.83;2.50;;;;;;;;;;6247476;28;20021;-71
2023/06/16 12:13:19;;;;;;;3.05;2.75;;;;;;;;;;6245049;28;20021;-71
2023/06/16 12:16:19;;;;;;;2.38;2.20;;;;;;;;;;6245361;28;20021;-70
2023/06/16 12:19:20;;;;;;;2.40;2.20;;;;;;;;;;6243743;28;20025;-69
2023/06/16 12:22:21;;;;;;;2.95;2.28;;;;;;;;;;6250303;28;20028;-70
2023/06/16 12:25:21;;;;;;;2.35;2.15;;;;;;;;;;6243640;28;20052;-71
2023/06/16 12:28:22;;;;;;;2.90;2.70;;;;;;;;;;6244812;28;20032;-70
2023/06/16 12:31:26;;;;;;;2.60;2.40;;;;;;;;;;6242588;28;20552;-72
2023/06/16 12:34:26;;;;;;;2.72;2.33;;;;;;;;;;6234618;28;20040;-70
2023/06/16 12:37:27;;;;;;;3.20;2.40;;;;;;;;;;6241641;28;20017;-70
2023/06/16 12:40:28;;;;;;;2.78;2.53;;;;;;;;;;6247086;28;20421;-68
2023/06/16 12:43:29;;;;;;;2.70;2.50;;;;;;;;;;6248148;28;20021;-67
2023/06/16 12:46:30;;;;;;;3.15;2.50;;;;;;;;;;6247736;28;20494;-68
2023/06/16 12:49:30;;;;;;;3.30;2.43;;;;;;;;;;6250250;28;20526;-69
2023/06/16 12:52:30;;;;;;;3.67;2.70;;;;;;;;;;6246472;28;20038;-69
2023/06/16 12:55:31;;;;;;;3.65;2.20;;;;;;;;;;6245811;28;20025;-69
2023/06/16 12:58:31;;;;;;;3.65;2.58;;;;;;;;;;6245736;28;20036;-70
2023/06/16 13:01:31;;;;;;;2.93;2.57;;;;;;;;;;6245125;28;20024;-71
2023/06/16 13:04:31;;;;;;;2.87;2.63;;;;;;;;;;6250017;28;20029;-69
2023/06/16 13:07:32;;;;;;;3.27;2.50;;;;;;;;;;6250671;28;20056;-70
2023/06/16 13:10:32;;;;;;;4.57;2.67;;;;;;;;;;6240985;28;20287;-70
2023/06/16 13:13:32;;;;;;;2.90;2.43;;;;;;;;;;6242491;28;20044;-70
2023/06/16 13:16:33;;;;;;;3.00;2.80;;;;;;;;;;6250749;28;20029;-69
2023/06/16 13:19:33;;;;;;;2.97;2.53;;;;;;;;;;6254056;28;20029;-72
2023/06/16 13:22:33;;;;;;;3.20;2.90;;;;;;;;;;6254084;28;20036;-72
2023/06/16 13:25:33;;;;;;;2.70;2.50;;;;;;;;;;6251147;28;20108;-71
2023/06/16 13:28:34;;;;;;;3.50;3.20;;;;;;;;;;6250385;28;20432;-70
2023/06/16 13:31:34;;;;;;;2.67;2.57;;;;;;;;;;6251919;28;20027;-71
2023/06/16 13:34:34;;;;;;;3.40;3.20;;;;;;;;;;6256207;28;20354;-71
2023/06/16 13:37:35;;;;;;;3.90;3.60;;;;;;;;;;6246213;28;20027;-70
2023/06/16 13:40:35;;;;;;;3.67;3.40;;;;;;;;;;6250999;28;20028;-69
2023/06/16 13:43:35;;;;;;;3.03;2.83;;;;;;;;;;6247194;28;20017;-70
2023/06/16 13:46:36;;;;;;;3.72;3.22;;;;;;;;;;6245944;28;20047;-71
2023/06/16 13:49:36;;;;;;;2.92;2.72;;;;;;;;;;6248113;28;20482;-70
2023/06/16 13:52:37;;;;;;;3.58;3.25;;;;;;;;;;5896646;28;10000014;-70
2023/06/16 13:55:37;;;;;;;3.00;2.80;;;;;;;;;;6245450;28;20029;-71
2023/06/16 13:58:38;;;;;;;3.55;2.95;;;;;;;;;;6253145;28;20029;-70
2023/06/16 14:01:38;;;;;;;2.95;2.75;;;;;;;;;;6263586;28;20017;-70
2023/06/16 14:04:38;;;;;;;3.43;3.20;;;;;;;;;;6249544;28;20403;-71
2023/06/16 14:07:39;;;;;;;3.40;3.10;;;;;;;;;;6246612;28;20029;-71
2023/06/16 14:10:39;;;;;;;3.38;3.08;;;;;;;;;;6252477;28;20025;-71
2023/06/16 14:13:40;;;;;;;3.10;2.80;;;;;;;;;;6247758;28;20017;-69
2023/06/16 14:16:40;;;;;;;3.27;3.07;;;;;;;;;;6257649;28;20078;-70
2023/06/16 14:19:40;;;;;;;3.30;3.10;;;;;;;;;;6255415;28;20025;-69
2023/06/16 14:22:41;;;;;;;3.67;3.37;;;;;;;;;;6265830;28;20275;-70
2023/06/16 14:25:44;;;;;;;4.00;3.60;;;;;;;;;;6252927;28;20174;-71
2023/06/16 14:28:44;;;;;;;3.85;3.55;;;;;;;;;;6248969;28;20032;-71
2023/06/16 14:31:45;;;;;;;4.93;3.80;;;;;;;;;;6250055;28;20021;-71
2023/06/16 14:34:45;;;;;;;3.80;3.50;;;;;;;;;;6261364;28;20021;-70
2023/06/16 14:37:46;;;;;;;4.07;3.37;;;;;;;;;;6250105;28;20025;-70
2023/06/16 14:40:46;;;;;;;3.03;2.80;;;;;;;;;;6253150;28;20955;-71
2023/06/16 14:43:46;;;;;;;4.30;3.10;;;;;;;;;;6252695;28;20025;-70
2023/06/16 14:46:47;;;;;;;3.53;2.90;;;;;;;;;;6244417;28;20068;-69
2023/06/16 14:49:47;;;;;;;3.50;3.20;;;;;;;;;;6254746;28;20025;-68
2023/06/16 14:52:47;;;;;;;3.03;2.83;;;;;;;;;;6266749;28;20084;-70
2023/06/16 14:55:49;;;;;;;3.45;3.25;;;;;;;;;;6253151;28;20053;-70
2023/06/16 14:58:49;;;;;;;4.00;3.60;;;;;;;;;;6255161;28;20017;-70
2023/06/16 15:01:50;;;;;;;3.33;3.13;;;;;;;;;;6258856;28;20124;-70
2023/06/16 15:04:50;;;;;;;3.38;3.08;;;;;;;;;;6253618;28;20028;-70
2023/06/16 15:07:50;;;;;;;3.80;3.50;;;;;;;;;;6250758;28;20385;-70
2023/06/16 15:10:51;;;;;;;3.93;3.53;;;;;;;;;;6251886;28;20447;-67
2023/06/16 15:13:51;;;;;;;4.53;4.13;;;;;;;;;;6254897;28;20098;-70
2023/06/16 15:16:52;;;;;;;4.10;3.40;;;;;;;;;;6245267;28;20033;-69
2023/06/16 15:19:52;;;;;;;3.90;3.50;;;;;;;;;;6250942;28;20024;-71
2023/06/16 15:22:52;;;;;;;3.57;3.27;;;;;;;;;;6259334;28;20126;-71
2023/06/16 15:25:52;;;;;;;6.47;3.30;;;;;;;;;;6250416;28;20374;-70
2023/06/16 15:28:52;;;;;;;4.30;3.10;;;;;;;;;;6252062;28;20485;-70
2023/06/16 15:31:53;;;;;;;4.03;3.23;;;;;;;;;;6252470;28;20028;-70
2023/06/16 15:34:53;;;;;;;3.63;3.33;;;;;;;;;;6253217;28;20025;-71
2023/06/16 15:37:53;;;;;;;3.13;2.83;;;;;;;;;;6251552;28;20294;-71
2023/06/16 15:40:53;;;;;;;5.07;3.30;;;;;;;;;;6258357;28;20025;-70
2023/06/16 15:43:54;;;;;;;4.87;3.17;;;;;;;;;;6247501;28;20029;-70
2023/06/16 15:46:54;;;;;;;3.40;3.03;;;;;;;;;;6251180;28;20028;-69
2023/06/16 15:49:54;;;;;;;5.95;3.47;;;;;;;;;;6259346;28;20024;-70
2023/06/16 15:52:54;;;;;;;3.45;3.15;;;;;;;;;;5907818;28;10000265;-70
2023/06/16 15:55:55;;;;;;;5.60;3.43;;;;;;;;;;6260741;28;20401;-69
2023/06/16 15:58:55;;;;;;;4.00;3.60;;;;;;;;;;6244640;28;20053;-70
2023/06/16 16:01:55;;;;;;;5.47;3.53;;;;;;;;;;6255988;28;20099;-69
2023/06/16 16:04:56;;;;;;;6.53;3.53;;;;;;;;;;6250274;28;20326;-69
2023/06/16 16:07:56;;;;;;;4.40;3.30;;;;;;;;;;6258017;28;20620;-70
2023/06/16 16:10:56;;;;;;;5.27;3.43;;;;;;;;;;6253518;28;20027;-70
2023/06/16 16:13:56;;;;;;;4.33;4.03;;;;;;;;;;6248830;28;20028;-69
2023/06/16 16:16:56;;;;;;;8.02;6.07;;;;;;;;;;6249934;28;20071;-69
2023/06/16 16:19:57;;;;;;;5.43;4.90;;;;;;;;;;6247265;28;20071;-69
2023/06/16 16:22:57;;;;;;;4.15;3.75;;;;;;;;;;6250619;28;20032;-70
2023/06/16 16:25:57;;;;;;;3.60;3.30;;;;;;;;;;6252279;28;20122;-69
2023/06/16 16:28:58;;;;;;;5.80;3.57;;;;;;;;;;6266252;28;20742;-69
2023/06/16 16:32:00;;;;;;;4.77;3.30;;;;;;;;;;6251968;28;21092;-70
2023/06/16 16:35:01;;;;;;;3.63;3.33;;;;;;;;;;6250903;28;20485;-68
2023/06/16 16:38:01;;;;;;;4.93;3.50;;;;;;;;;;6240719;28;20017;-68
2023/06/16 16:41:02;;;;;;;5.43;3.75;;;;;;;;;;6243008;28;20059;-67
2023/06/16 16:44:02;;;;;;;4.13;3.72;;;;;;;;;;6245064;28;20079;-67
2023/06/16 16:47:03;;;;;;;3.95;3.55;;;;;;;;;;6243790;28;20103;-67
2023/06/16 16:50:03;;;;;;;3.90;3.13;;;;;;;;;;6243874;28;20024;-67
2023/06/16 16:53:03;;;;;;;3.67;2.95;;;;;;;;;;6253094;28;20465;-69
2023/06/16 16:56:05;;;;;;;4.77;3.37;;;;;;;;;;6248231;28;20021;-69
2023/06/16 16:59:05;;;;;;;3.67;3.03;;;;;;;;;;6271450;28;20005;-68
2023/06/16 17:02:06;;;;;;;4.10;3.27;;;;;;;;;;6273454;28;20021;-68
2023/06/16 17:05:06;;;;;;;3.78;3.22;;;;;;;;;;6260150;28;20685;-68
2023/06/16 17:08:08;;;;;;;3.17;2.80;;;;;;;;;;6250548;28;20025;-68
2023/06/16 17:11:08;;;;;;;3.35;3.00;;;;;;;;;;6265330;28;20029;-68
2023/06/16 17:14:08;;;;;;;4.03;3.08;;;;;;;;;;6249436;28;20055;-69
2023/06/16 17:17:08;;;;;;;3.83;3.03;;;;;;;;;;6249670;28;20089;-68
2023/06/16 17:20:09;;;;;;;3.65;2.60;;;;;;;;;;6249208;28;20292;-68
2023/06/16 17:23:09;;;;;;;2.85;2.65;;;;;;;;;;6255774;28;20026;-68
2023/06/16 17:26:10;;;;;;;5.93;3.00;;;;;;;;;;6244450;28;20022;-70
2023/06/16 17:29:10;;;;;;;3.75;2.85;;;;;;;;;;6249794;28;20372;-70
2023/06/16 17:32:10;;;;;;;5.87;3.13;;;;;;;;;;6245654;28;20021;-69
2023/06/16 17:35:10;;;;;;;3.42;2.67;;;;;;;;;;6254142;28;20286;-69
2023/06/16 17:38:11;;;;;;;5.33;3.10;;;;;;;;;;6254119;28;20116;-70
2023/06/16 17:41:15;;;;;;;3.07;2.77;;;;;;;;;;6247405;28;20271;-67
2023/06/16 17:44:15;;;;;;;3.97;2.97;;;;;;;;;;6252105;28;20561;-68
2023/06/16 17:47:16;;;;;;;4.27;2.73;;;;;;;;;;6247668;28;20506;-69
2023/06/16 17:50:16;;;;;;;3.38;2.70;;;;;;;;;;6248286;28;20398;-68
2023/06/16 17:53:16;;;;;;;4.07;3.33;;;;;;;;;;6247338;28;20025;-70
2023/06/16 17:56:16;;;;;;;3.45;2.83;;;;;;;;;;6248631;28;20263;-69
2023/06/16 17:59:17;;;;;;;3.75;2.92;;;;;;;;;;6245407;28;20394;-68
2023/06/16 18:02:17;;;;;;;4.13;2.85;;;;;;;;;;6244024;28;20032;-69
2023/06/16 18:05:17;;;;;;;4.33;3.13;;;;;;;;;;6242867;28;20441;-68
2023/06/16 18:08:18;;;;;;;3.75;3.28;;;;;;;;;;6250843;28;20370;-68